Time;durP1;ratioP1;P1;durP2;ratioP2;P2;SDS_P1;SDS_P2;PMS_P1;PMS_P2;Temp;Humidity;BMP_temperature;BMP_pressure;BME280_temperature;BME280_humidity;BME280_pressure;Samples;Min_cycle;Max_cycle;Signal;HPM_P1;HPM_P2
2023/12/13 00:01:06;;;;;;;1.10;0.70;;;7.50;99.90;;;;;;5046003;28;20493;-66
2023/12/13 00:03:33;;;;;;;1.77;0.80;;;7.60;99.90;;;;;;5046891;28;20606;-66
2023/12/13 00:06:00;;;;;;;1.25;0.70;;;7.50;99.90;;;;;;5045745;28;20410;-67
2023/12/13 00:08:26;;;;;;;3.42;0.82;;;7.50;99.90;;;;;;5046592;28;20448;-66
2023/12/13 00:10:58;;;;;;;2.10;0.88;;;7.50;99.90;;;;;;5044045;28;20923;-65
2023/12/13 00:13:25;;;;;;;2.50;0.90;;;7.50;99.90;;;;;;5039292;28;20888;-67
2023/12/13 00:15:53;;;;;;;1.90;0.80;;;7.60;99.90;;;;;;5045133;28;20413;-66
2023/12/13 00:18:20;;;;;;;1.85;0.70;;;7.60;99.90;;;;;;5045996;28;20417;-66
2023/12/13 00:20:47;;;;;;;2.40;0.80;;;7.60;99.90;;;;;;5046979;28;20436;-66
2023/12/13 00:23:14;;;;;;;3.10;0.80;;;7.60;99.90;;;;;;5047406;28;21162;-67
2023/12/13 00:25:40;;;;;;;1.40;0.60;;;7.60;99.90;;;;;;5045419;28;20433;-66
2023/12/13 00:28:07;;;;;;;2.80;1.00;;;7.60;99.90;;;;;;5046448;28;20414;-69
2023/12/13 00:30:34;;;;;;;1.30;0.60;;;7.70;99.90;;;;;;5057903;28;20528;-67
2023/12/13 00:33:02;;;;;;;1.90;0.70;;;7.70;99.90;;;;;;5057514;28;20433;-67
2023/12/13 00:35:29;;;;;;;2.20;0.77;;;7.70;99.90;;;;;;5054859;28;20888;-67
2023/12/13 00:37:56;;;;;;;1.98;0.80;;;7.60;99.90;;;;;;5047489;28;20417;-66
2023/12/13 00:40:24;;;;;;;2.30;0.73;;;7.60;99.90;;;;;;5045458;28;20437;-66
2023/12/13 00:42:50;;;;;;;1.35;0.82;;;7.70;99.90;;;;;;5046102;28;20451;-66
2023/12/13 00:45:17;;;;;;;3.30;0.80;;;7.70;99.90;;;;;;5044458;28;20437;-66
2023/12/13 00:47:44;;;;;;;2.13;0.90;;;7.60;99.90;;;;;;5046356;28;20520;-66
2023/12/13 00:50:12;;;;;;;1.88;0.70;;;7.70;99.90;;;;;;5045835;28;20409;-66
2023/12/13 00:52:39;;;;;;;3.13;1.03;;;7.60;99.90;;;;;;5046154;28;20765;-67
2023/12/13 00:55:07;;;;;;;1.50;0.60;;;7.70;99.90;;;;;;5044494;28;20433;-66
2023/12/13 00:57:35;;;;;;;4.50;1.20;;;7.70;99.90;;;;;;5045327;28;20420;-67
2023/12/13 01:00:02;;;;;;;2.40;1.00;;;7.70;99.90;;;;;;5045511;28;20413;-66
2023/12/13 01:02:28;;;;;;;4.00;1.10;;;7.70;99.90;;;;;;5045837;28;20545;-66
2023/12/13 01:04:55;;;;;;;2.97;1.30;;;7.70;99.90;;;;;;5044621;28;20446;-67
2023/12/13 01:07:23;;;;;;;2.05;0.82;;;7.70;99.90;;;;;;5045602;28;20595;-67
2023/12/13 01:09:50;;;;;;;2.70;0.90;;;7.70;99.90;;;;;;5044110;28;20437;-66
2023/12/13 01:12:17;;;;;;;1.85;0.82;;;7.70;99.90;;;;;;5045747;28;20553;-66
2023/12/13 01:14:44;;;;;;;2.80;1.30;;;7.70;99.90;;;;;;5044707;28;20426;-66
2023/12/13 01:17:12;;;;;;;2.20;1.00;;;7.70;99.90;;;;;;5044513;28;20409;-66
2023/12/13 01:19:39;;;;;;;2.00;1.17;;;7.80;99.90;;;;;;5040488;28;20473;-67
2023/12/13 01:22:05;;;;;;;2.13;1.00;;;7.80;99.90;;;;;;5044259;28;20448;-66
2023/12/13 01:24:33;;;;;;;3.97;1.20;;;7.80;99.90;;;;;;5046078;28;20551;-67
2023/12/13 01:27:00;;;;;;;3.10;2.00;;;7.90;99.90;;;;;;5044446;28;20790;-67
2023/12/13 01:29:27;;;;;;;2.10;1.20;;;7.90;99.90;;;;;;5045892;28;20417;-66
2023/12/13 01:31:54;;;;;;;1.98;1.17;;;7.90;99.90;;;;;;5045299;28;20417;-66
2023/12/13 01:34:21;;;;;;;3.00;1.40;;;7.90;99.90;;;;;;5047280;28;20486;-67
2023/12/13 01:36:47;;;;;;;2.72;1.00;;;8.00;99.90;;;;;;5036033;28;20932;-66
2023/12/13 01:39:15;;;;;;;1.88;0.80;;;8.00;99.90;;;;;;5044906;28;20434;-69
2023/12/13 01:41:44;;;;;;;3.50;1.40;;;8.00;99.90;;;;;;5043881;28;20425;-67
2023/12/13 01:44:11;;;;;;;2.65;1.00;;;8.00;99.90;;;;;;5045201;28;20421;-67
2023/12/13 01:46:38;;;;;;;1.90;0.90;;;8.00;99.90;;;;;;5044400;28;20440;-66
2023/12/13 01:49:06;;;;;;;4.40;1.08;;;8.10;99.90;;;;;;5045223;28;20509;-66
2023/12/13 01:51:33;;;;;;;3.10;1.00;;;8.10;99.90;;;;;;5046174;28;20545;-67
2023/12/13 01:54:01;;;;;;;1.92;0.98;;;8.10;99.90;;;;;;5042094;28;20425;-66
2023/12/13 01:56:28;;;;;;;3.38;1.10;;;8.10;99.90;;;;;;5043292;28;20448;-66
2023/12/13 01:58:57;;;;;;;2.80;1.10;;;8.10;99.90;;;;;;5044511;28;20417;-67
2023/12/13 02:01:23;;;;;;;2.55;0.90;;;8.10;99.90;;;;;;5044861;28;20975;-67
2023/12/13 02:03:50;;;;;;;2.20;1.00;;;8.10;99.90;;;;;;5046170;28;20776;-66
2023/12/13 02:06:17;;;;;;;3.38;1.10;;;8.10;99.90;;;;;;5043437;28;20405;-66
2023/12/13 02:08:44;;;;;;;2.50;1.10;;;8.10;99.90;;;;;;5051200;28;20409;-66
2023/12/13 02:11:11;;;;;;;3.30;0.90;;;8.20;99.90;;;;;;5044134;28;20539;-67
2023/12/13 02:13:38;;;;;;;3.20;1.00;;;8.20;99.90;;;;;;5047224;28;20443;-67
2023/12/13 02:16:07;;;;;;;2.22;1.00;;;8.20;99.90;;;;;;5045097;28;20444;-67
2023/12/13 02:18:34;;;;;;;3.10;1.10;;;8.20;99.90;;;;;;5044967;28;20417;-67
2023/12/13 02:21:00;;;;;;;2.78;0.90;;;8.20;99.90;;;;;;5044888;28;20448;-67
2023/12/13 02:23:28;;;;;;;3.38;1.10;;;8.20;99.90;;;;;;5045913;28;20437;-66
2023/12/13 02:25:58;;;;;;;2.40;0.80;;;8.20;99.90;;;;;;5042492;28;20456;-66
2023/12/13 02:28:26;;;;;;;1.90;0.82;;;8.20;99.90;;;;;;5044635;28;20417;-66
2023/12/13 02:30:55;;;;;;;4.03;1.05;;;8.20;99.90;;;;;;5045490;28;20413;-67
2023/12/13 02:33:24;;;;;;;2.80;0.90;;;8.20;99.90;;;;;;5045045;28;20563;-66
2023/12/13 02:35:51;;;;;;;2.40;0.98;;;8.20;99.90;;;;;;5044505;28;20435;-65
2023/12/13 02:38:17;;;;;;;2.53;0.90;;;8.20;99.90;;;;;;5037206;28;20429;-67
2023/12/13 02:40:45;;;;;;;2.20;1.00;;;8.30;99.90;;;;;;5038851;28;20766;-66
2023/12/13 02:43:12;;;;;;;4.93;1.10;;;8.20;99.90;;;;;;5044947;28;20744;-66
2023/12/13 02:45:39;;;;;;;2.03;1.00;;;8.20;99.90;;;;;;5044494;28;20418;-67
2023/12/13 02:48:06;;;;;;;2.28;0.90;;;8.20;99.90;;;;;;5044075;28;20427;-66
2023/12/13 02:50:36;;;;;;;2.30;1.10;;;8.20;99.90;;;;;;5038770;28;20490;-67
2023/12/13 02:53:03;;;;;;;2.25;0.95;;;8.20;99.90;;;;;;5044080;28;20413;-67
2023/12/13 02:55:30;;;;;;;2.10;1.00;;;8.30;99.90;;;;;;5041774;28;20429;-66
2023/12/13 02:57:59;;;;;;;3.33;1.10;;;8.30;99.90;;;;;;5042949;28;20428;-67
2023/12/13 03:00:25;;;;;;;1.77;1.13;;;8.30;99.90;;;;;;5044560;28;20753;-67
2023/12/13 03:02:52;;;;;;;4.10;1.08;;;8.30;99.90;;;;;;5044601;28;20440;-66
2023/12/13 03:05:19;;;;;;;2.90;1.10;;;8.30;99.90;;;;;;5045424;28;20539;-67
2023/12/13 03:07:46;;;;;;;2.95;1.40;;;8.30;99.90;;;;;;5048527;28;20405;-66
2023/12/13 03:10:12;;;;;;;2.50;1.00;;;8.30;99.90;;;;;;5048228;28;20715;-66
2023/12/13 03:12:40;;;;;;;3.47;1.57;;;8.30;99.90;;;;;;5047018;28;20455;-66
2023/12/13 03:15:09;;;;;;;2.60;1.10;;;8.30;99.90;;;;;;5047593;28;20845;-67
2023/12/13 03:17:36;;;;;;;2.97;1.10;;;8.20;99.90;;;;;;5047912;28;20961;-67
2023/12/13 03:20:03;;;;;;;2.70;1.20;;;8.20;99.90;;;;;;5047496;28;20424;-67
2023/12/13 03:22:30;;;;;;;3.47;1.10;;;8.20;99.90;;;;;;5047318;28;20753;-67
2023/12/13 03:24:57;;;;;;;3.03;1.20;;;8.20;99.90;;;;;;5047871;28;20413;-67
2023/12/13 03:27:24;;;;;;;2.13;1.20;;;8.20;99.90;;;;;;5045952;28;20493;-66
2023/12/13 03:29:51;;;;;;;3.20;1.20;;;8.20;99.90;;;;;;5048089;28;20516;-67
2023/12/13 03:32:19;;;;;;;2.53;1.13;;;8.10;99.90;;;;;;5045712;28;20811;-67
2023/12/13 03:34:45;;;;;;;4.05;1.13;;;8.10;99.90;;;;;;5047887;28;20868;-68
2023/12/13 03:37:14;;;;;;;4.20;1.20;;;8.10;99.90;;;;;;5046253;28;20433;-67
2023/12/13 03:39:40;;;;;;;3.70;1.55;;;8.10;99.90;;;;;;5046618;28;20463;-66
2023/12/13 03:42:07;;;;;;;3.35;1.42;;;8.10;99.90;;;;;;5045608;28;20444;-67
2023/12/13 03:44:34;;;;;;;4.60;1.70;;;8.00;99.90;;;;;;5047265;28;20915;-67
2023/12/13 03:47:01;;;;;;;3.92;1.50;;;8.00;99.90;;;;;;5045779;28;20413;-67
2023/12/13 03:49:29;;;;;;;4.40;1.40;;;8.00;99.90;;;;;;5047003;28;20474;-67
2023/12/13 03:51:55;;;;;;;2.70;1.20;;;8.00;99.90;;;;;;5046913;28;20414;-66
2023/12/13 03:54:22;;;;;;;2.70;1.60;;;8.00;99.90;;;;;;5046734;28;20420;-67
2023/12/13 03:56:49;;;;;;;4.00;1.60;;;7.90;99.90;;;;;;5042044;28;20798;-66
2023/12/13 03:59:15;;;;;;;4.35;1.70;;;7.90;99.90;;;;;;5045426;28;20432;-67
2023/12/13 04:01:42;;;;;;;3.78;1.90;;;7.90;99.90;;;;;;5045821;28;20736;-67
2023/12/13 04:04:09;;;;;;;2.90;2.20;;;7.90;99.90;;;;;;5046334;28;20436;-67
2023/12/13 04:06:37;;;;;;;4.18;1.63;;;7.90;99.90;;;;;;5046147;28;20413;-67
2023/12/13 04:09:04;;;;;;;4.63;1.35;;;8.00;99.90;;;;;;5046048;28;20414;-67
2023/12/13 04:11:30;;;;;;;4.68;1.40;;;8.00;99.90;;;;;;5044149;28;20456;-66
2023/12/13 04:13:57;;;;;;;4.60;1.80;;;8.00;99.90;;;;;;5046011;28;20417;-68
2023/12/13 04:16:24;;;;;;;3.67;1.40;;;8.00;99.90;;;;;;5044443;28;20864;-68
2023/12/13 04:18:50;;;;;;;4.18;1.60;;;8.00;99.90;;;;;;5046093;28;20422;-67
2023/12/13 04:21:17;;;;;;;3.85;1.60;;;8.00;99.90;;;;;;5046480;28;20413;-67
2023/12/13 04:23:45;;;;;;;4.30;1.60;;;8.00;99.90;;;;;;5047258;28;20511;-66
2023/12/13 04:26:12;;;;;;;4.93;1.40;;;8.00;99.90;;;;;;5047893;28;20788;-68
2023/12/13 04:28:38;;;;;;;2.80;1.60;;;8.10;99.90;;;;;;5046141;28;20430;-68
2023/12/13 04:31:06;;;;;;;5.30;1.60;;;8.00;99.90;;;;;;5046528;28;20532;-67
2023/12/13 04:33:33;;;;;;;4.30;1.70;;;8.00;99.90;;;;;;5046319;28;20413;-67
2023/12/13 04:36:00;;;;;;;4.30;1.50;;;7.90;99.90;;;;;;5045367;28;20759;-68
2023/12/13 04:38:27;;;;;;;4.35;1.50;;;7.90;99.90;;;;;;5046174;28;20429;-68
2023/12/13 04:40:55;;;;;;;5.20;1.70;;;7.90;99.90;;;;;;5044697;28;20926;-68
2023/12/13 04:43:22;;;;;;;6.93;1.90;;;7.90;99.90;;;;;;5038155;28;20571;-67
2023/12/13 04:45:49;;;;;;;3.20;1.70;;;7.90;99.90;;;;;;5044878;28;20786;-68
2023/12/13 04:48:15;;;;;;;3.88;1.50;;;7.90;99.90;;;;;;5058046;28;20427;-68
2023/12/13 04:50:42;;;;;;;5.72;1.77;;;7.90;99.90;;;;;;5051045;28;20443;-67
2023/12/13 04:53:09;;;;;;;4.72;1.83;;;7.90;99.90;;;;;;5045397;28;20477;-67
2023/12/13 04:55:35;;;;;;;4.68;1.50;;;8.00;99.90;;;;;;5043746;28;20456;-68
2023/12/13 04:58:04;;;;;;;3.47;1.67;;;7.90;99.90;;;;;;5044461;28;20433;-67
2023/12/13 05:00:31;;;;;;;4.82;2.90;;;7.90;99.90;;;;;;5045339;28;20553;-68
2023/12/13 05:02:58;;;;;;;3.88;1.70;;;7.90;99.90;;;;;;5045173;28;20428;-68
2023/12/13 05:05:24;;;;;;;4.40;2.05;;;7.80;99.90;;;;;;5045338;28;20420;-68
2023/12/13 05:07:51;;;;;;;3.83;2.05;;;7.80;99.90;;;;;;5045515;28;20416;-68
2023/12/13 05:10:18;;;;;;;3.03;2.00;;;7.80;99.90;;;;;;5040561;28;20428;-68
2023/12/13 05:12:45;;;;;;;5.72;2.40;;;7.80;99.90;;;;;;5046058;28;20512;-68
2023/12/13 05:15:13;;;;;;;5.00;2.10;;;7.70;99.90;;;;;;5044636;28;20427;-68
2023/12/13 05:17:39;;;;;;;3.88;2.40;;;7.70;99.90;;;;;;5045579;28;20496;-68
2023/12/13 05:20:08;;;;;;;3.40;2.00;;;7.70;99.90;;;;;;5045517;28;20429;-68
2023/12/13 05:22:35;;;;;;;4.65;2.45;;;7.70;99.90;;;;;;5045352;28;20417;-67
2023/12/13 05:25:02;;;;;;;4.55;2.50;;;7.80;99.90;;;;;;5040217;28;20425;-68
2023/12/13 05:27:29;;;;;;;4.15;2.30;;;7.80;99.90;;;;;;5043268;28;20448;-67
2023/12/13 05:29:56;;;;;;;5.72;1.85;;;7.80;99.90;;;;;;5043700;28;20431;-68
2023/12/13 05:32:24;;;;;;;4.80;1.80;;;7.80;99.90;;;;;;5045874;28;20429;-68
2023/12/13 05:34:51;;;;;;;3.67;1.80;;;7.80;99.90;;;;;;5044706;28;20495;-67
2023/12/13 05:37:17;;;;;;;2.88;1.63;;;7.80;99.90;;;;;;5044954;28;20413;-68
2023/12/13 05:39:44;;;;;;;4.32;1.70;;;7.80;99.90;;;;;;5043367;28;20432;-68
2023/12/13 05:42:11;;;;;;;4.90;1.83;;;7.80;99.90;;;;;;5044274;28;20413;-67
2023/12/13 05:44:37;;;;;;;4.10;1.60;;;7.80;99.90;;;;;;5038223;28;20523;-68
2023/12/13 05:47:04;;;;;;;4.30;1.73;;;7.80;99.90;;;;;;5042552;28;20536;-68
2023/12/13 05:49:32;;;;;;;3.78;1.98;;;7.80;99.90;;;;;;5044836;28;20915;-67
2023/12/13 05:51:59;;;;;;;5.75;1.80;;;7.80;99.90;;;;;;5044949;28;20417;-67
2023/12/13 05:54:26;;;;;;;3.20;1.70;;;7.90;99.90;;;;;;5042802;28;20448;-67
2023/12/13 05:56:52;;;;;;;3.90;1.83;;;7.80;99.90;;;;;;5044814;28;20416;-68
2023/12/13 05:59:19;;;;;;;4.60;1.70;;;7.80;99.90;;;;;;5034069;28;20460;-67
2023/12/13 06:01:46;;;;;;;4.07;1.70;;;7.80;99.90;;;;;;5041652;28;20536;-68
2023/12/13 06:04:12;;;;;;;6.43;2.10;;;7.80;99.90;;;;;;5044692;28;20765;-68
2023/12/13 06:06:45;;;;;;;4.97;1.60;;;7.80;99.90;;;;;;5042603;28;20479;-69
2023/12/13 06:09:12;;;;;;;4.20;1.60;;;7.80;99.90;;;;;;5042975;28;20444;-68
2023/12/13 06:11:39;;;;;;;2.88;1.40;;;7.70;99.90;;;;;;5044838;28;20418;-67
2023/12/13 06:14:06;;;;;;;6.30;1.90;;;7.70;99.90;;;;;;5044284;28;20425;-69
2023/12/13 06:16:32;;;;;;;3.80;1.70;;;7.70;99.90;;;;;;5043951;28;20417;-67
2023/12/13 06:18:59;;;;;;;5.33;1.67;;;7.70;99.90;;;;;;5044589;28;20533;-67
2023/12/13 06:21:26;;;;;;;3.72;1.65;;;7.60;99.90;;;;;;5043273;28;20513;-66
2023/12/13 06:23:54;;;;;;;3.00;1.88;;;7.60;99.90;;;;;;5039471;28;20425;-68
2023/12/13 06:26:21;;;;;;;4.03;1.88;;;7.60;99.90;;;;;;5035739;28;20433;-66
2023/12/13 06:28:48;;;;;;;4.60;1.80;;;7.70;99.90;;;;;;5044802;28;20423;-67
2023/12/13 06:31:14;;;;;;;4.50;1.73;;;7.60;99.90;;;;;;5044347;28;20417;-67
2023/12/13 06:33:41;;;;;;;4.88;1.80;;;7.60;99.90;;;;;;5044725;28;20415;-67
2023/12/13 06:36:08;;;;;;;4.95;1.70;;;7.60;99.90;;;;;;5049058;28;20420;-66
2023/12/13 06:38:35;;;;;;;3.03;1.80;;;7.50;99.90;;;;;;5046332;28;20429;-67
2023/12/13 06:41:03;;;;;;;4.65;1.70;;;7.50;99.90;;;;;;5046834;28;20433;-66
2023/12/13 06:43:29;;;;;;;5.45;1.80;;;7.40;99.90;;;;;;5047708;28;20761;-67
2023/12/13 06:45:56;;;;;;;5.85;1.85;;;7.40;99.90;;;;;;5047542;28;20421;-67
2023/12/13 06:48:23;;;;;;;5.93;1.80;;;7.40;99.90;;;;;;5040822;28;20591;-67
2023/12/13 06:50:49;;;;;;;6.55;2.15;;;7.40;99.90;;;;;;5048400;28;20509;-67
2023/12/13 06:53:16;;;;;;;6.15;1.90;;;7.40;99.90;;;;;;5047448;28;20524;-67
2023/12/13 06:55:43;;;;;;;5.00;2.10;;;7.40;99.90;;;;;;5049072;28;20572;-65
2023/12/13 06:58:11;;;;;;;4.38;1.90;;;7.40;99.90;;;;;;5048408;28;20416;-65
2023/12/13 07:00:38;;;;;;;5.13;2.60;;;7.40;99.90;;;;;;5048464;28;20501;-65
2023/12/13 07:03:05;;;;;;;5.07;2.30;;;7.50;99.90;;;;;;5049266;28;20420;-67
2023/12/13 07:05:32;;;;;;;4.00;2.17;;;7.50;99.90;;;;;;5046161;28;20436;-67
2023/12/13 07:07:58;;;;;;;5.38;2.20;;;7.50;99.90;;;;;;5045822;28;20481;-67
2023/12/13 07:10:26;;;;;;;4.18;2.00;;;7.50;99.90;;;;;;5048916;28;20413;-67
2023/12/13 07:12:53;;;;;;;3.42;2.30;;;7.50;99.90;;;;;;5047326;28;20504;-68
2023/12/13 07:15:21;;;;;;;4.53;2.10;;;7.40;99.90;;;;;;5047998;28;20565;-67
2023/12/13 07:17:48;;;;;;;5.80;2.30;;;7.40;99.90;;;;;;5048104;28;20431;-67
2023/12/13 07:20:17;;;;;;;5.07;2.30;;;7.40;99.90;;;;;;5046307;28;20563;-67
2023/12/13 07:22:43;;;;;;;5.38;2.15;;;7.40;99.90;;;;;;5047871;28;20405;-67
2023/12/13 07:25:10;;;;;;;3.55;2.20;;;7.40;99.90;;;;;;5046883;28;20429;-67
2023/12/13 07:27:37;;;;;;;4.68;2.00;;;7.40;99.90;;;;;;5048340;28;20417;-67
2023/12/13 07:30:05;;;;;;;5.25;2.20;;;7.50;99.90;;;;;;5046979;28;20417;-67
2023/12/13 07:32:33;;;;;;;7.03;2.47;;;7.50;99.90;;;;;;5046474;28;20437;-67
2023/12/13 07:35:00;;;;;;;5.32;2.13;;;7.40;99.90;;;;;;5048841;28;20837;-67
2023/12/13 07:37:28;;;;;;;5.97;2.30;;;7.50;99.90;;;;;;5048406;28;20437;-68
2023/12/13 07:39:54;;;;;;;4.10;2.00;;;7.50;99.90;;;;;;5047737;28;20413;-67
2023/12/13 07:42:21;;;;;;;5.28;2.17;;;7.50;99.90;;;;;;5047960;28;20409;-68
2023/12/13 07:44:48;;;;;;;7.00;2.50;;;7.50;99.90;;;;;;5049558;28;20768;-67
2023/12/13 07:47:14;;;;;;;6.53;2.30;;;7.50;99.90;;;;;;5050113;28;20433;-69
2023/12/13 07:49:42;;;;;;;4.73;1.90;;;7.50;99.90;;;;;;5047330;28;20521;-67
2023/12/13 07:52:09;;;;;;;4.43;2.50;;;7.50;99.90;;;;;;5046172;28;20433;-67
2023/12/13 07:54:36;;;;;;;6.07;2.08;;;7.50;99.90;;;;;;5045869;28;20939;-67
2023/12/13 07:57:03;;;;;;;4.60;2.08;;;7.50;99.90;;;;;;5046519;28;20530;-67
2023/12/13 07:59:30;;;;;;;4.78;2.40;;;7.50;99.90;;;;;;5048574;28;20848;-67
2023/12/13 08:01:56;;;;;;;5.05;2.70;;;7.50;99.90;;;;;;5049774;28;20417;-67
2023/12/13 08:04:23;;;;;;;5.25;2.40;;;7.50;99.90;;;;;;5049258;28;20931;-69
2023/12/13 08:06:52;;;;;;;6.50;2.65;;;7.50;99.90;;;;;;5047537;28;20444;-67
2023/12/13 08:09:19;;;;;;;6.50;2.33;;;7.50;99.90;;;;;;5047889;28;20904;-67
2023/12/13 08:11:46;;;;;;;4.90;2.47;;;7.50;99.90;;;;;;5048070;28;20494;-68
2023/12/13 08:14:14;;;;;;;4.63;2.35;;;7.50;99.90;;;;;;5044093;28;20461;-67
2023/12/13 08:16:41;;;;;;;7.65;2.55;;;7.50;99.90;;;;;;5040321;28;20516;-66
2023/12/13 08:19:08;;;;;;;5.03;2.17;;;7.50;99.90;;;;;;5044625;28;20783;-67
2023/12/13 08:21:40;;;;;;;7.35;2.88;;;7.50;99.90;;;;;;5045752;28;20433;-68
2023/12/13 08:24:09;;;;;;;6.18;2.90;;;7.50;99.90;;;;;;5045836;28;20430;-68
2023/12/13 08:26:35;;;;;;;6.90;3.00;;;7.50;99.90;;;;;;5046412;28;20414;-68
2023/12/13 08:29:03;;;;;;;7.57;2.70;;;7.50;99.90;;;;;;5046958;28;20420;-69
2023/12/13 08:31:30;;;;;;;5.65;2.88;;;7.60;99.90;;;;;;5043616;28;20429;-67
2023/12/13 08:33:57;;;;;;;5.38;2.72;;;7.60;99.90;;;;;;5045243;28;20498;-68
2023/12/13 08:36:25;;;;;;;6.20;3.00;;;7.60;99.90;;;;;;5044126;28;20852;-68
2023/12/13 08:38:52;;;;;;;8.57;2.80;;;7.60;99.90;;;;;;5045514;28;20483;-68
2023/12/13 08:41:20;;;;;;;6.15;2.67;;;7.60;99.90;;;;;;5047124;28;20422;-68
2023/12/13 08:43:47;;;;;;;6.90;2.95;;;7.60;99.90;;;;;;5043036;28;20433;-69
2023/12/13 08:46:13;;;;;;;7.43;3.00;;;7.60;99.90;;;;;;5044545;28;20484;-68
2023/12/13 08:48:40;;;;;;;6.80;2.92;;;7.60;99.90;;;;;;5046681;28;20476;-68
2023/12/13 08:51:07;;;;;;;4.22;2.50;;;7.70;99.90;;;;;;5046127;28;20444;-68
2023/12/13 08:53:34;;;;;;;5.73;3.17;;;7.70;99.90;;;;;;5041471;28;20429;-67
2023/12/13 08:56:01;;;;;;;6.60;3.10;;;7.70;99.90;;;;;;5043547;28;20429;-68
2023/12/13 08:58:29;;;;;;;5.07;3.10;;;7.70;99.90;;;;;;5041609;28;20437;-68
2023/12/13 09:00:55;;;;;;;6.50;2.90;;;7.70;99.90;;;;;;5046018;28;20783;-68
2023/12/13 09:03:22;;;;;;;3.50;2.20;;;7.70;99.90;;;;;;5049101;28;20429;-68
2023/12/13 09:05:50;;;;;;;4.60;2.70;;;7.70;99.90;;;;;;5045983;28;20436;-68
2023/12/13 09:08:16;;;;;;;4.03;2.83;;;7.70;99.90;;;;;;5046422;28;20421;-69
2023/12/13 09:10:43;;;;;;;8.00;3.42;;;7.70;99.90;;;;;;5046641;28;20843;-69
2023/12/13 09:13:10;;;;;;;5.90;3.28;;;7.80;99.90;;;;;;5047260;28;20417;-68
2023/12/13 09:15:38;;;;;;;4.90;2.90;;;7.80;99.90;;;;;;5046707;28;20420;-68
2023/12/13 09:18:04;;;;;;;4.65;2.53;;;7.90;99.90;;;;;;5045764;28;20444;-68
2023/12/13 09:20:31;;;;;;;5.57;2.60;;;7.90;99.90;;;;;;5044910;28;20433;-68
2023/12/13 09:22:58;;;;;;;7.67;3.10;;;8.00;99.90;;;;;;5045756;28;20497;-68
2023/12/13 09:25:25;;;;;;;6.38;2.90;;;8.00;99.90;;;;;;5045581;28;20452;-68
2023/12/13 09:27:52;;;;;;;4.78;2.78;;;8.00;99.90;;;;;;5046074;28;20417;-68
2023/12/13 09:30:19;;;;;;;5.18;2.90;;;8.00;99.90;;;;;;5046561;28;20525;-68
2023/12/13 09:32:47;;;;;;;5.80;2.40;;;8.00;99.90;;;;;;5045690;28;20433;-68
2023/12/13 09:35:14;;;;;;;5.95;2.97;;;8.10;99.90;;;;;;5044553;28;20437;-68
2023/12/13 09:37:41;;;;;;;5.38;2.90;;;8.10;99.90;;;;;;5046096;28;20416;-70
2023/12/13 09:40:14;;;;;;;5.90;3.00;;;8.10;99.90;;;;;;5045602;28;20425;-69
2023/12/13 09:42:44;;;;;;;3.88;2.50;;;8.20;99.90;;;;;;5045812;28;20413;-68
2023/12/13 09:45:16;;;;;;;5.15;2.70;;;8.20;99.90;;;;;;5045283;28;20429;-68
2023/12/13 09:47:42;;;;;;;5.70;2.92;;;8.20;99.90;;;;;;5045621;28;20417;-68
2023/12/13 09:50:12;;;;;;;4.68;2.60;;;8.30;99.90;;;;;;5044508;28;20781;-68
2023/12/13 09:52:39;;;;;;;5.00;3.13;;;8.30;99.90;;;;;;5045197;28;20472;-68
2023/12/13 09:55:09;;;;;;;6.63;3.33;;;8.30;99.90;;;;;;5045125;28;20536;-68
2023/12/13 09:57:36;;;;;;;5.57;3.03;;;8.30;99.90;;;;;;5045097;28;20815;-68
2023/12/13 10:00:03;;;;;;;4.80;2.75;;;8.40;99.90;;;;;;5042935;28;20445;-67
2023/12/13 10:02:30;;;;;;;7.00;3.60;;;8.50;99.90;;;;;;5045678;28;20452;-68
2023/12/13 10:05:00;;;;;;;5.13;3.00;;;8.60;99.90;;;;;;5044923;28;20437;-69
2023/12/13 10:07:28;;;;;;;5.60;2.97;;;8.70;99.90;;;;;;5037384;28;20409;-68
2023/12/13 10:09:56;;;;;;;4.45;2.80;;;8.80;99.90;;;;;;5045791;28;20432;-68
2023/12/13 10:12:23;;;;;;;3.85;2.70;;;8.90;99.90;;;;;;5045280;28;20492;-68
2023/12/13 10:14:49;;;;;;;5.90;3.10;;;9.00;99.90;;;;;;5042545;28;20469;-68
2023/12/13 10:17:20;;;;;;;7.53;3.85;;;9.00;99.90;;;;;;5044334;28;20413;-69
2023/12/13 10:19:47;;;;;;;8.23;3.20;;;9.10;99.90;;;;;;5044437;28;20487;-70
2023/12/13 10:22:13;;;;;;;6.03;2.97;;;9.20;99.90;;;;;;5045347;28;20425;-68
2023/12/13 10:24:42;;;;;;;4.50;3.00;;;9.30;99.90;;;;;;5045205;28;20413;-69
2023/12/13 10:27:09;;;;;;;5.93;3.10;;;9.40;99.90;;;;;;5045448;28;20906;-69
2023/12/13 10:29:36;;;;;;;4.32;2.83;;;9.40;99.90;;;;;;5045552;28;20957;-69
2023/12/13 10:32:03;;;;;;;4.90;3.10;;;9.40;99.90;;;;;;5044499;28;20444;-68
2023/12/13 10:34:30;;;;;;;5.50;3.20;;;9.40;99.90;;;;;;5044998;28;20414;-69
2023/12/13 10:36:58;;;;;;;6.15;3.58;;;9.40;99.90;;;;;;5045079;28;20496;-68
2023/12/13 10:39:25;;;;;;;6.35;3.45;;;9.40;99.90;;;;;;5044454;28;20412;-68
2023/12/13 10:41:56;;;;;;;5.95;3.50;;;9.50;99.90;;;;;;5044707;28;20414;-69
2023/12/13 10:44:23;;;;;;;6.13;3.90;;;9.60;99.90;;;;;;5043719;28;20756;-68
2023/12/13 10:46:56;;;;;;;5.15;3.10;;;9.60;99.90;;;;;;5043119;28;20429;-68
2023/12/13 10:49:23;;;;;;;7.43;5.93;;;9.70;99.90;;;;;;5043188;28;20417;-68
2023/12/13 10:51:52;;;;;;;12.68;9.10;;;9.70;99.90;;;;;;5043028;28;20436;-68
2023/12/13 10:54:19;;;;;;;12.00;8.55;;;9.80;99.90;;;;;;5044747;28;20424;-68
2023/12/13 10:56:46;;;;;;;7.63;5.30;;;9.80;99.90;;;;;;5044233;28;20500;-68
2023/12/13 10:59:16;;;;;;;6.35;4.20;;;9.80;99.90;;;;;;5043296;28;20448;-68
2023/12/13 11:01:45;;;;;;;5.43;3.85;;;9.80;99.90;;;;;;5043937;28;20481;-69
2023/12/13 11:04:16;;;;;;;5.17;4.20;;;9.80;99.90;;;;;;5044280;28;20600;-68
2023/12/13 11:06:45;;;;;;;6.13;3.20;;;10.00;99.90;;;;;;5042648;28;20909;-69
2023/12/13 11:09:14;;;;;;;6.32;3.75;;;10.00;99.90;;;;;;5043697;28;20421;-68
2023/12/13 11:11:42;;;;;;;4.68;3.20;;;10.10;99.90;;;;;;5043330;28;20528;-69
2023/12/13 11:14:09;;;;;;;6.45;3.65;;;10.20;99.90;;;;;;5043146;28;20898;-68
2023/12/13 11:16:40;;;;;;;4.80;3.20;;;10.20;99.90;;;;;;5043110;28;20413;-69
2023/12/13 11:19:11;;;;;;;7.43;3.67;;;10.30;99.90;;;;;;5043296;28;20413;-68
2023/12/13 11:21:40;;;;;;;5.40;3.47;;;10.40;99.90;;;;;;5043224;28;20451;-69
2023/12/13 11:24:12;;;;;;;7.07;3.70;;;10.40;99.90;;;;;;5043978;28;20421;-68
2023/12/13 11:26:42;;;;;;;5.13;2.50;;;10.50;99.90;;;;;;5045591;28;20484;-68
2023/12/13 11:29:14;;;;;;;6.20;2.90;;;10.60;99.90;;;;;;5048109;28;20422;-68
2023/12/13 11:31:53;;;;;;;5.30;2.20;;;10.70;99.90;;;;;;5046534;28;20927;-68
2023/12/13 11:34:32;;;;;;;4.15;2.13;;;10.70;99.90;;;;;;5047157;28;20415;-68
2023/12/13 11:37:00;;;;;;;5.03;2.45;;;10.80;99.90;;;;;;5042630;28;20531;-68
2023/12/13 11:39:28;;;;;;;4.15;2.20;;;10.80;99.90;;;;;;5043851;28;20661;-69
2023/12/13 11:41:55;;;;;;;5.32;2.20;;;10.80;99.90;;;;;;5045835;28;20907;-67
2023/12/13 11:44:21;;;;;;;4.20;2.08;;;10.90;99.90;;;;;;5046429;28;20643;-64
2023/12/13 11:46:55;;;;;;;6.57;1.80;;;11.00;99.90;;;;;;5045006;28;20554;-66
2023/12/13 11:49:22;;;;;;;3.90;2.10;;;11.10;99.90;;;;;;5045328;28;20512;-66
2023/12/13 11:51:49;;;;;;;5.00;1.95;;;11.10;99.90;;;;;;5045443;28;20425;-66
2023/12/13 11:54:16;;;;;;;6.53;2.10;;;11.10;99.90;;;;;;5046018;28;20497;-66
2023/12/13 11:56:43;;;;;;;4.93;2.00;;;11.10;99.90;;;;;;5044825;28;20475;-66
2023/12/13 11:59:10;;;;;;;5.53;1.90;;;11.20;99.90;;;;;;5044900;28;20531;-66
2023/12/13 12:01:37;;;;;;;4.90;2.03;;;11.30;99.90;;;;;;5045709;28;20421;-66
2023/12/13 12:04:05;;;;;;;6.00;2.10;;;11.30;99.90;;;;;;5044796;28;20465;-65
2023/12/13 12:06:32;;;;;;;3.72;1.73;;;11.40;99.90;;;;;;5043949;28;20429;-66
2023/12/13 12:09:01;;;;;;;4.53;2.00;;;11.40;99.90;;;;;;5041335;28;20490;-65
2023/12/13 12:11:28;;;;;;;4.03;1.60;;;11.40;99.90;;;;;;5044961;28;20445;-65
2023/12/13 12:13:56;;;;;;;5.87;2.17;;;11.50;99.90;;;;;;5045656;28;20409;-65
2023/12/13 12:16:22;;;;;;;5.07;1.67;;;11.40;99.90;;;;;;5044113;28;20895;-65
2023/12/13 12:18:49;;;;;;;4.50;1.38;;;11.50;99.90;;;;;;5043768;28;20775;-65
2023/12/13 12:21:19;;;;;;;3.97;1.80;;;11.50;99.90;;;;;;5044877;28;20852;-68
2023/12/13 12:23:46;;;;;;;4.00;1.58;;;11.60;99.90;;;;;;5040100;28;20413;-68
2023/12/13 12:26:13;;;;;;;4.50;1.80;;;11.60;99.90;;;;;;5046140;28;20938;-67
2023/12/13 12:28:41;;;;;;;4.10;1.80;;;11.60;99.90;;;;;;5044874;28;20496;-68
2023/12/13 12:31:09;;;;;;;4.50;1.90;;;11.60;99.90;;;;;;5045765;28;20410;-67
2023/12/13 12:33:36;;;;;;;4.10;1.70;;;11.60;99.90;;;;;;5046082;28;20498;-67
2023/12/13 12:36:03;;;;;;;5.07;1.90;;;11.50;99.90;;;;;;5044840;28;20441;-67
2023/12/13 12:38:30;;;;;;;3.50;1.60;;;11.60;99.90;;;;;;5036793;28;20417;-67
2023/12/13 12:40:57;;;;;;;4.40;1.70;;;12.00;99.90;;;;;;5044898;28;20915;-68
2023/12/13 12:43:24;;;;;;;4.57;1.73;;;12.50;99.90;;;;;;5045880;28;20424;-68
2023/12/13 12:45:51;;;;;;;4.03;1.63;;;12.90;99.90;;;;;;5045182;28;20429;-68
2023/12/13 12:48:18;;;;;;;4.07;1.60;;;13.00;99.90;;;;;;5044859;28;20420;-69
2023/12/13 12:50:45;;;;;;;4.30;1.83;;;12.90;99.40;;;;;;5046209;28;20414;-68
2023/12/13 12:53:13;;;;;;;3.85;1.65;;;12.90;99.50;;;;;;5045020;28;20420;-68
2023/12/13 12:55:41;;;;;;;3.83;1.53;;;12.80;99.10;;;;;;5039107;28;20443;-68